Aérodrome :
LOGIN :

S'inscrire | Disclaimer

   EN    FR    IT 

 










Légende :    VFR   VFR Marginal   IFR   IFR Intensif   IFR Très Intensif
Visi : 
Plafond : 
>= 8 km
>= 3000ft
5 à 8 km
1000 à 3000 ft
1500m à 5 km
500 à 1000 ft
800 à 1500m
200 à 500 ft
< 800m
< 200 ft
Symboles :   Orages  Brouillard  Fortes neiges  Fortes précipitations  Vent > 20 kt
SIGMETs :   Divers  Orages  Givrage  Turbulence  Onde Orograph.  Cendres Volcan.






- Altitude de l'aérodrome : 1300 ft
- Code IATA : LIG


LFBL - Limoges

DERNIER METAR :
  • 101530Z AUTO 31006KT 230V360 9999 SCT030 BKN041 BKN047 22/14 Q1019 NOSIG

METARs EXPIRÉS :
  • 101500Z AUTO 29008KT 260V340 9999 BKN039 BKN047 22/14 Q1019 NOSIG
  • 101430Z AUTO 29008KT 250V350 9999 FEW032 SCT038 BKN045 21/14 Q1019 NOSIG
  • 101400Z AUTO 26008KT 230V310 9999 FEW030 BKN044 22/15 Q1019 NOSIG
  • 101330Z AUTO 27007KT 230V320 9999 FEW024 OVC045 21/15 Q1019 NOSIG
  • 101300Z AUTO 28007KT 240V330 9999 FEW019 OVC040 20/14 Q1019 NOSIG

TAF TAF LFBL
Valide du 10 à 12h jusqu'au 11 à 12h UTC


101100Z 1012/1112 28010KT 9999 BKN025
BECMG 1019/1021 02010KT
ATIS : +33 5 55 48 40 37



MET'MAP, la Météo Aéronautique d'un coup d'oeil ! - Copyright ORBIFLY Décembre 2007 - Disclaimer

ORBIFLY MET'MAP TEAM :

Programmation & Développement : Alexandra Zaïnal
Sur une idée originale de : Baudouin d'Aumeries
Assistance à la programmation : Marc-Olivier Méhu
Soutien technique & logistique : Manuel Goepfert

Contact : metmap@orbifly.com




SOURCES & CREDITS :

   NOAA